Time,TemperatureF,DewpointF,PressureIn,WindDirection,WindDirectionDegrees,WindSpeedMPH,WindSpeedGustMPH,Humidity,HourlyPrecipIn,Conditions,Clouds,dailyrainin,SoftwareType,DateUTC
2013-06-30 00:00:00,76.9,76.0,29.94,SE,125,0.0,4.0,98,0.00,,,0.57,weatherlink.com 1.10,2013-06-30 04:00:00,
2013-06-30 00:15:00,76.8,76.0,29.94,SE,135,3.0,5.0,98,0.00,,,0.00,weatherlink.com 1.10,2013-06-30 04:15:00,
2013-06-30 00:30:00,77.1,76.0,29.94,SE,134,2.0,4.0,97,0.00,,,0.00,weatherlink.com 1.10,2013-06-30 04:30:00,
2013-06-30 00:46:00,77.7,76.0,29.94,SE,142,3.0,6.0,94,0.00,,,0.00,weatherlink.com 1.10,2013-06-30 04:46:00,
2013-06-30 01:00:00,78.1,76.0,29.94,SE,146,0.0,5.0,93,0.00,,,0.00,weatherlink.com 1.10,2013-06-30 05:00:00,
2013-06-30 01:16:00,78.5,76.0,29.94,SE,145,2.0,6.0,92,0.00,,,0.00,weatherlink.com 1.10,2013-06-30 05:16:00,
2013-06-30 01:30:00,78.6,76.0,29.93,SSE,158,1.0,6.0,91,0.00,,,0.00,weatherlink.com 1.10,2013-06-30 05:30:00,
2013-06-30 01:45:00,78.5,75.0,29.93,SE,139,0.0,6.0,90,0.00,,,0.00,weatherlink.com 1.10,2013-06-30 05:45:00,
2013-06-30 02:00:00,78.5,75.0,29.93,SSE,148,0.0,5.0,89,0.00,,,0.00,weatherlink.com 1.10,2013-06-30 06:00:00,
2013-06-30 02:16:00,78.6,75.0,29.93,SE,140,1.0,6.0,89,0.00,,,0.00,weatherlink.com 1.10,2013-06-30 06:16:00,
2013-06-30 02:31:00,78.4,75.0,29.93,SSE,159,2.0,8.0,89,0.00,,,0.00,weatherlink.com 1.10,2013-06-30 06:31:00,
2013-06-30 02:45:00,78.5,75.0,29.92,SE,133,2.0,6.0,89,0.00,,,0.00,weatherlink.com 1.10,2013-06-30 06:45:00,
2013-06-30 03:01:00,78.3,75.0,29.92,SSE,152,2.0,5.0,89,0.00,,,0.00,weatherlink.com 1.10,2013-06-30 07:01:00,
2013-06-30 03:15:00,77.9,75.0,29.91,SW,226,0.0,3.0,90,0.00,,,0.00,weatherlink.com 1.10,2013-06-30 07:15:00,
2013-06-30 03:31:00,77.5,75.0,29.91,SW,227,0.0,2.0,91,0.00,,,0.00,weatherlink.com 1.10,2013-06-30 07:31:00,
2013-06-30 03:47:00,77.1,74.0,29.91,SSE,152,1.0,5.0,91,0.00,,,0.00,weatherlink.com 1.10,2013-06-30 07:47:00,
2013-06-30 04:01:00,77.1,74.0,29.92,SW,232,1.0,3.0,91,0.00,,,0.00,weatherlink.com 1.10,2013-06-30 08:01:00,
2013-06-30 04:16:00,76.9,75.0,29.92,SW,225,0.0,3.0,92,0.00,,,0.00,weatherlink.com 1.10,2013-06-30 08:16:00,
2013-06-30 04:32:00,76.8,74.0,29.91,WSW,245,1.0,3.0,92,0.00,,,0.00,weatherlink.com 1.10,2013-06-30 08:32:00,
2013-06-30 04:46:00,76.8,74.0,29.91,SSE,156,4.0,4.0,91,0.00,,,0.00,weatherlink.com 1.10,2013-06-30 08:46:00,
2013-06-30 05:02:00,76.8,74.0,29.90,SSW,203,1.0,3.0,92,0.00,,,0.00,weatherlink.com 1.10,2013-06-30 09:02:00,
2013-06-30 05:16:00,76.8,74.0,29.91,SW,215,1.0,4.0,92,0.00,,,0.00,weatherlink.com 1.10,2013-06-30 09:16:00,
2013-06-30 05:31:00,76.7,74.0,29.91,SE,135,0.0,2.0,92,0.00,,,0.00,weatherlink.com 1.10,2013-06-30 09:31:00,
2013-06-30 05:47:00,76.7,74.0,29.92,SSE,150,0.0,3.0,92,0.00,,,0.00,weatherlink.com 1.10,2013-06-30 09:47:00,
2013-06-30 06:01:00,76.7,74.0,29.92,WSW,249,1.0,3.0,92,0.00,,,0.00,weatherlink.com 1.10,2013-06-30 10:01:00,
2013-06-30 06:17:00,76.7,75.0,29.92,SSE,148,1.0,3.0,93,0.00,,,0.00,weatherlink.com 1.10,2013-06-30 10:17:00,
2013-06-30 06:32:00,76.6,75.0,29.93,SSW,203,0.0,3.0,93,0.00,,,0.00,weatherlink.com 1.10,2013-06-30 10:32:00,
2013-06-30 06:46:00,76.7,75.0,29.93,SW,224,0.0,4.0,93,0.00,,,0.00,weatherlink.com 1.10,2013-06-30 10:46:00,
2013-06-30 07:02:00,76.9,75.0,29.93,SSE,162,2.0,5.0,93,0.00,,,0.00,weatherlink.com 1.10,2013-06-30 11:02:00,
2013-06-30 07:17:00,77.6,75.0,29.93,SSW,205,0.0,1.0,92,0.00,,,0.00,weatherlink.com 1.10,2013-06-30 11:17:00,
2013-06-30 07:31:00,78.8,76.0,29.94,SSE,152,1.0,5.0,91,0.00,,,0.00,weatherlink.com 1.10,2013-06-30 11:31:00,
2013-06-30 07:47:00,80.5,77.0,29.95,SSE,150,2.0,6.0,88,0.00,,,0.00,weatherlink.com 1.10,2013-06-30 11:47:00,
2013-06-30 08:02:00,81.4,77.0,29.95,SE,144,2.0,5.0,86,0.00,,,0.00,weatherlink.com 1.10,2013-06-30 12:02:00,
2013-06-30 08:18:00,81.9,77.0,29.95,SSE,150,2.0,7.0,86,0.00,,,0.00,weatherlink.com 1.10,2013-06-30 12:18:00,
2013-06-30 08:33:00,82.4,78.0,29.95,SW,220,5.0,8.0,85,0.00,,,0.00,weatherlink.com 1.10,2013-06-30 12:33:00,
2013-06-30 08:48:00,83.0,78.0,29.95,WSW,238,5.0,7.0,84,0.00,,,0.00,weatherlink.com 1.10,2013-06-30 12:48:00,
2013-06-30 09:02:00,83.5,78.0,29.95,SW,234,4.0,10.0,82,0.00,,,0.00,weatherlink.com 1.10,2013-06-30 13:02:00,
2013-06-30 09:18:00,84.0,78.0,29.95,SSW,211,6.0,13.0,81,0.00,,,0.00,weatherlink.com 1.10,2013-06-30 13:18:00,
2013-06-30 09:34:00,83.7,77.0,29.95,SW,227,7.0,13.0,80,0.00,,,0.00,weatherlink.com 1.10,2013-06-30 13:34:00,
2013-06-30 09:48:00,85.0,78.0,29.95,WSW,242,4.0,10.0,79,0.00,,,0.00,weatherlink.com 1.10,2013-06-30 13:48:00,
2013-06-30 10:04:00,86.1,77.0,29.95,SSW,204,3.0,11.0,74,0.00,,,0.00,weatherlink.com 1.10,2013-06-30 14:04:00,
2013-06-30 10:18:00,86.7,77.0,29.94,ESE,113,6.0,12.0,72,0.00,,,0.00,weatherlink.com 1.10,2013-06-30 14:18:00,
2013-06-30 10:34:00,87.1,76.0,29.95,SSE,151,6.0,16.0,69,0.00,,,0.00,weatherlink.com 1.10,2013-06-30 14:34:00,
2013-06-30 10:48:00,87.5,77.0,29.95,SSW,201,3.0,14.0,70,0.00,,,0.00,weatherlink.com 1.10,2013-06-30 14:48:00,
2013-06-30 11:03:00,87.4,75.0,29.96,SSW,205,7.0,10.0,66,0.00,,,0.00,weatherlink.com 1.10,2013-06-30 15:03:00,
2013-06-30 11:19:00,88.2,75.0,29.96,ESE,117,12.0,12.0,65,0.00,,,0.00,weatherlink.com 1.10,2013-06-30 15:19:00,
2013-06-30 11:33:00,88.2,75.0,29.95,SSE,164,6.0,12.0,65,0.00,,,0.00,weatherlink.com 1.10,2013-06-30 15:33:00,
2013-06-30 11:49:00,88.6,75.0,29.95,SSE,166,5.0,13.0,65,0.00,,,0.00,weatherlink.com 1.10,2013-06-30 15:49:00,
2013-06-30 12:03:00,88.9,75.0,29.95,South,188,5.0,13.0,64,0.00,,,0.00,weatherlink.com 1.10,2013-06-30 16:03:00,
2013-06-30 12:19:00,89.4,76.0,29.94,SE,144,2.0,11.0,64,0.00,,,0.00,weatherlink.com 1.10,2013-06-30 16:19:00,
2013-06-30 12:33:00,87.4,77.0,29.94,SSE,160,8.0,15.0,71,0.00,,,0.00,weatherlink.com 1.10,2013-06-30 16:33:00,
2013-06-30 12:49:00,85.0,75.0,29.94,SE,141,9.0,17.0,72,0.00,,,0.00,weatherlink.com 1.10,2013-06-30 16:49:00,
2013-06-30 13:04:00,82.0,76.0,29.95,SE,138,8.0,15.0,82,0.05,,,0.05,weatherlink.com 1.10,2013-06-30 17:04:00,
2013-06-30 13:19:00,77.1,73.0,29.96,WSW,248,12.0,22.0,87,0.09,,,0.09,weatherlink.com 1.10,2013-06-30 17:19:00,
2013-06-30 13:34:00,74.8,73.0,29.96,SE,139,4.0,12.0,93,0.10,,,0.10,weatherlink.com 1.10,2013-06-30 17:34:00,
2013-06-30 13:50:00,74.8,73.0,29.95,SE,128,4.0,9.0,94,0.10,,,0.10,weatherlink.com 1.10,2013-06-30 17:50:00,
2013-06-30 14:05:00,75.7,74.0,29.94,SE,142,2.0,5.0,95,0.05,,,0.10,weatherlink.com 1.10,2013-06-30 18:05:00,
2013-06-30 14:19:00,78.7,77.0,29.94,SE,139,3.0,7.0,95,0.01,,,0.10,weatherlink.com 1.10,2013-06-30 18:19:00,
2013-06-30 14:35:00,82.4,79.0,29.93,SE,132,7.0,14.0,88,0.00,,,0.10,weatherlink.com 1.10,2013-06-30 18:35:00,
2013-06-30 14:50:00,83.7,77.0,29.93,South,170,8.0,22.0,81,0.00,,,0.10,weatherlink.com 1.10,2013-06-30 18:50:00,
2013-06-30 15:05:00,83.8,77.0,29.93,WSW,245,10.0,17.0,81,0.00,,,0.10,weatherlink.com 1.10,2013-06-30 19:05:00,
2013-06-30 15:19:00,83.3,75.0,29.93,SSE,151,12.0,16.0,77,0.00,,,0.10,weatherlink.com 1.10,2013-06-30 19:19:00,
2013-06-30 15:37:00,78.6,73.0,29.95,SW,228,7.0,18.0,83,0.00,,,0.10,weatherlink.com 1.10,2013-06-30 19:37:00,
2013-06-30 15:49:00,76.4,73.0,29.96,SW,228,7.0,20.0,89,0.00,,,0.10,weatherlink.com 1.10,2013-06-30 19:49:00,
2013-06-30 16:05:00,74.8,71.0,29.97,SSE,155,8.0,14.0,89,0.12,,,0.22,weatherlink.com 1.10,2013-06-30 20:05:00,
2013-06-30 16:21:00,73.1,72.0,29.95,SSW,195,1.0,6.0,95,0.32,,,0.42,weatherlink.com 1.10,2013-06-30 20:21:00,
2013-06-30 16:35:00,74.2,73.0,29.95,ESE,106,5.0,6.0,97,0.35,,,0.45,weatherlink.com 1.10,2013-06-30 20:35:00,
2013-06-30 16:50:00,75.1,74.0,29.95,SSE,148,12.0,14.0,97,0.35,,,0.45,weatherlink.com 1.10,2013-06-30 20:50:00,
2013-06-30 17:06:00,73.4,72.0,29.94,SSW,209,3.0,6.0,96,0.24,,,0.51,weatherlink.com 1.10,2013-06-30 21:06:00,
2013-06-30 17:20:00,73.4,73.0,29.95,SSW,213,0.0,3.0,97,0.11,,,0.53,weatherlink.com 1.10,2013-06-30 21:20:00,
2013-06-30 17:35:00,74.0,73.0,29.94,SW,232,0.0,4.0,98,0.09,,,0.54,weatherlink.com 1.10,2013-06-30 21:35:00,
2013-06-30 17:51:00,75.1,75.0,29.95,SSE,148,0.0,3.0,98,0.09,,,0.54,weatherlink.com 1.10,2013-06-30 21:51:00,
2013-06-30 18:06:00,75.5,75.0,29.94,SE,146,0.0,6.0,98,0.04,,,0.55,weatherlink.com 1.10,2013-06-30 22:06:00,
2013-06-30 18:20:00,75.8,75.0,29.93,ESE,115,3.0,6.0,98,0.04,,,0.57,weatherlink.com 1.10,2013-06-30 22:20:00,
2013-06-30 18:36:00,76.0,75.0,29.94,SSW,197,0.0,5.0,98,0.04,,,0.58,weatherlink.com 1.10,2013-06-30 22:36:00,
2013-06-30 18:52:00,76.2,76.0,29.93,SE,134,2.0,4.0,98,0.05,,,0.59,weatherlink.com 1.10,2013-06-30 22:52:00,
2013-06-30 19:06:00,76.3,76.0,29.94,SE,143,0.0,3.0,98,0.06,,,0.61,weatherlink.com 1.10,2013-06-30 23:06:00,
2013-06-30 19:21:00,76.6,76.0,29.95,ESE,107,0.0,2.0,98,0.04,,,0.61,weatherlink.com 1.10,2013-06-30 23:21:00,
2013-06-30 19:36:00,76.7,76.0,29.96,SSE,155,5.0,6.0,97,0.04,,,0.62,weatherlink.com 1.10,2013-06-30 23:36:00,
2013-06-30 19:52:00,76.5,75.0,29.96,SW,221,0.0,5.0,96,0.03,,,0.62,weatherlink.com 1.10,2013-06-30 23:52:00,
2013-06-30 20:07:00,76.3,75.0,29.96,SW,225,0.0,0.0,94,0.02,,,0.63,weatherlink.com 1.10,2013-07-01 00:07:00,
2013-06-30 20:21:00,76.0,74.0,29.96,SW,227,0.0,0.0,93,0.02,,,0.63,weatherlink.com 1.10,2013-07-01 00:21:00,
2013-06-30 20:36:00,75.9,74.0,29.97,SSE,150,1.0,5.0,93,0.01,,,0.63,weatherlink.com 1.10,2013-07-01 00:36:00,
2013-06-30 20:52:00,76.1,74.0,29.98,WSW,241,2.0,4.0,94,0.01,,,0.63,weatherlink.com 1.10,2013-07-01 00:52:00,
2013-06-30 21:07:00,75.7,74.0,30.00,SSE,154,2.0,17.0,93,0.05,,,0.68,weatherlink.com 1.10,2013-07-01 01:07:00,
2013-06-30 21:22:00,73.7,71.0,29.98,West,269,0.0,2.0,92,0.21,,,0.84,weatherlink.com 1.10,2013-07-01 01:22:00,
2013-06-30 21:36:00,73.9,72.0,29.99,WNW,288,0.0,0.0,94,0.21,,,0.84,weatherlink.com 1.10,2013-07-01 01:36:00,
2013-06-30 21:52:00,74.3,73.0,29.98,SW,222,0.0,0.0,95,0.21,,,0.84,weatherlink.com 1.10,2013-07-01 01:52:00,
2013-06-30 22:07:00,74.4,73.0,29.99,SE,145,0.0,0.0,95,0.14,,,0.84,weatherlink.com 1.10,2013-07-01 02:07:00,
2013-06-30 22:23:00,74.5,73.0,30.00,SSE,148,0.0,0.0,96,0.00,,,0.84,weatherlink.com 1.10,2013-07-01 02:23:00,
2013-06-30 22:38:00,74.5,73.0,30.00,SSE,150,0.0,0.0,96,0.00,,,0.84,weatherlink.com 1.10,2013-07-01 02:38:00,
2013-06-30 22:53:00,74.6,73.0,30.00,SW,222,0.0,0.0,96,0.00,,,0.84,weatherlink.com 1.10,2013-07-01 02:53:00,
2013-06-30 23:07:00,74.9,74.0,29.99,SW,225,0.0,0.0,96,0.00,,,0.84,weatherlink.com 1.10,2013-07-01 03:07:00,
2013-06-30 23:23:00,75.0,74.0,30.00,ESE,120,0.0,3.0,96,0.00,,,0.84,weatherlink.com 1.10,2013-07-01 03:23:00,
2013-06-30 23:38:00,75.5,74.0,30.00,SE,145,2.0,4.0,95,0.00,,,0.84,weatherlink.com 1.10,2013-07-01 03:38:00,
2013-06-30 23:53:00,75.8,74.0,30.01,SE,140,0.0,2.0,95,0.00,,,0.84,weatherlink.com 1.10,2013-07-01 03:53:00,